createdAt,value
2022-07-26T00:00:40.520Z,14.23
2022-07-26T00:03:07.418Z,13.70
2022-07-26T00:05:37.157Z,15.80
2022-07-26T00:08:13.314Z,17.08
2022-07-26T00:10:42.940Z,11.23
2022-07-26T00:13:10.717Z,17.13
2022-07-26T00:15:38.834Z,18.73
2022-07-26T00:18:06.212Z,18.27
2022-07-26T00:20:41.502Z,14.27
2022-07-26T00:23:08.879Z,17.17
2022-07-26T00:25:36.454Z,12.35
2022-07-26T00:28:03.906Z,12.98
2022-07-26T00:30:33.421Z,16.52
2022-07-26T00:33:02.397Z,14.02
2022-07-26T00:35:29.251Z,14.50
2022-07-26T00:37:56.295Z,9.85
2022-07-26T00:40:23.127Z,16.45
2022-07-26T00:42:50.424Z,17.15
2022-07-26T00:45:19.070Z,15.93
2022-07-26T00:47:47.099Z,18.75
2022-07-26T00:50:17.742Z,12.18
2022-07-26T00:52:47.782Z,19.70
2022-07-26T00:55:16.569Z,12.50
2022-07-26T00:57:44.088Z,14.43
2022-07-26T01:00:16.571Z,13.60
2022-07-26T01:02:45.062Z,13.43
2022-07-26T01:05:12.273Z,15.70
2022-07-26T01:07:39.664Z,11.85
2022-07-26T01:10:12.871Z,16.08
2022-07-26T01:12:41.101Z,14.27
2022-07-26T01:15:09.232Z,17.95
2022-07-26T01:17:38.140Z,16.27
2022-07-26T01:20:08.489Z,16.95
2022-07-26T01:22:37.013Z,15.35
2022-07-26T01:25:08.198Z,9.35
2022-07-26T01:27:39.343Z,17.88
2022-07-26T01:30:11.657Z,15.23
2022-07-26T01:32:39.361Z,20.13
2022-07-26T01:35:07.372Z,14.95
2022-07-26T01:37:34.634Z,15.70
2022-07-26T01:40:02.290Z,17.02
2022-07-26T01:42:29.505Z,16.83
2022-07-26T01:44:56.483Z,15.18
2022-07-26T01:47:23.611Z,17.52
2022-07-26T01:49:51.472Z,18.77
2022-07-26T01:52:19.184Z,14.90
2022-07-26T01:54:46.058Z,17.20
2022-07-26T01:57:15.131Z,15.45
2022-07-26T01:59:43.009Z,17.27
2022-07-26T02:02:12.305Z,19.65
2022-07-26T02:04:58.633Z,23.58
2022-07-26T02:07:28.456Z,16.88
2022-07-26T02:09:55.914Z,22.17
2022-07-26T02:12:24.162Z,22.70
2022-07-26T02:14:51.636Z,23.30
2022-07-26T02:17:19.554Z,17.48
2022-07-26T02:19:46.488Z,20.10
2022-07-26T02:22:14.424Z,19.17
2022-07-26T02:24:41.472Z,21.25
2022-07-26T02:27:08.417Z,15.00
2022-07-26T02:29:36.455Z,18.13
2022-07-26T02:32:03.576Z,23.50
2022-07-26T02:34:33.765Z,20.98
2022-07-26T02:37:01.622Z,19.95
2022-07-26T02:39:28.502Z,15.93
2022-07-26T02:42:00.471Z,16.98
2022-07-26T02:44:27.896Z,26.65
2022-07-26T02:46:56.791Z,19.73
2022-07-26T02:49:23.800Z,18.05
2022-07-26T02:51:50.809Z,17.90
2022-07-26T02:54:19.736Z,18.67
2022-07-26T02:56:46.577Z,22.10
2022-07-26T02:59:13.518Z,22.27
2022-07-26T03:01:40.430Z,17.65
2022-07-26T03:04:08.101Z,28.08
2022-07-26T03:06:35.548Z,25.42
2022-07-26T03:09:04.061Z,20.52
2022-07-26T03:11:31.020Z,16.48
2022-07-26T03:13:57.976Z,17.50
2022-07-26T03:16:29.220Z,26.73
2022-07-26T03:18:57.901Z,27.30
2022-07-26T03:21:25.857Z,22.13
2022-07-26T03:23:53.516Z,21.27
2022-07-26T03:26:21.980Z,19.77
2022-07-26T03:28:48.897Z,20.48
2022-07-26T03:31:16.860Z,20.25
2022-07-26T03:33:44.782Z,19.67
2022-07-26T03:36:15.477Z,28.83
2022-07-26T03:38:44.145Z,23.13
2022-07-26T03:41:13.541Z,24.60
2022-07-26T03:43:41.298Z,21.70
2022-07-26T03:46:08.528Z,20.80
2022-07-26T03:48:35.698Z,21.88
2022-07-26T03:51:02.691Z,26.02
2022-07-26T03:53:29.630Z,19.67
2022-07-26T03:56:15.166Z,22.60
2022-07-26T03:58:44.081Z,20.65
2022-07-26T04:01:11.079Z,23.90
2022-07-26T04:03:37.966Z,24.52
2022-07-26T04:06:05.290Z,23.35
2022-07-26T04:08:32.798Z,21.35
2022-07-26T04:10:59.617Z,24.10
2022-07-26T04:13:26.555Z,22.58
2022-07-26T04:15:56.630Z,19.48
2022-07-26T04:18:24.840Z,25.10
2022-07-26T04:20:51.848Z,23.08
2022-07-26T04:23:19.524Z,23.73
2022-07-26T04:25:46.445Z,26.08
2022-07-26T04:28:14.397Z,25.90
2022-07-26T04:30:42.526Z,21.55
2022-07-26T04:33:09.529Z,22.77
2022-07-26T04:35:36.581Z,25.80
2022-07-26T04:38:04.204Z,24.27
2022-07-26T04:40:40.850Z,20.38
2022-07-26T04:43:10.601Z,24.67
2022-07-26T04:45:45.066Z,24.58
2022-07-26T04:48:12.312Z,20.50
2022-07-26T04:50:39.383Z,24.45
2022-07-26T04:53:06.305Z,26.75
2022-07-26T04:55:43.264Z,22.80
2022-07-26T04:58:10.754Z,27.02
2022-07-26T05:01:02.893Z,17.35
2022-07-26T05:03:25.434Z,22.20
2022-07-26T05:05:56.036Z,23.23
2022-07-26T05:08:22.935Z,23.92
2022-07-26T05:10:55.116Z,19.02
2022-07-26T05:13:29.862Z,26.40
2022-07-26T05:16:00.034Z,19.83
2022-07-26T05:18:27.682Z,23.65
2022-07-26T05:20:56.894Z,21.80
2022-07-26T05:23:23.726Z,23.05
2022-07-26T05:25:53.070Z,23.88
2022-07-26T05:28:19.953Z,17.33
2022-07-26T05:30:47.142Z,27.65
2022-07-26T05:33:16.700Z,24.38
2022-07-26T05:35:45.073Z,34.53
2022-07-26T05:38:11.938Z,21.73
2022-07-26T05:40:39.836Z,22.98
2022-07-26T05:43:07.431Z,23.13
2022-07-26T05:45:34.289Z,20.05
2022-07-26T05:48:01.182Z,24.20
2022-07-26T05:50:28.226Z,22.17
2022-07-26T05:52:56.294Z,19.33
2022-07-26T05:55:23.239Z,22.85
2022-07-26T05:57:52.479Z,18.08
2022-07-26T06:00:34.855Z,22.25
2022-07-26T06:03:21.773Z,21.52
2022-07-26T06:05:57.916Z,22.83
2022-07-26T06:08:25.949Z,16.67
2022-07-26T06:10:54.364Z,16.50
2022-07-26T06:13:21.792Z,18.35
2022-07-26T06:15:48.691Z,37.47
2022-07-26T06:18:16.032Z,23.95
2022-07-26T06:20:44.531Z,19.20
2022-07-26T06:23:14.241Z,17.73
2022-07-26T06:25:41.354Z,17.60
2022-07-26T06:28:10.626Z,16.38
2022-07-26T06:30:39.687Z,20.63
2022-07-26T06:33:07.785Z,20.42
2022-07-26T06:35:35.998Z,16.92
2022-07-26T06:38:03.301Z,18.20
2022-07-26T06:40:30.511Z,21.80
2022-07-26T06:43:01.365Z,19.48
2022-07-26T06:45:31.922Z,16.05
2022-07-26T06:47:58.951Z,19.02
2022-07-26T06:50:25.942Z,15.38
2022-07-26T06:52:52.836Z,15.80
2022-07-26T06:55:21.642Z,18.13
2022-07-26T06:57:50.653Z,14.35
2022-07-26T07:00:18.301Z,16.10
2022-07-26T07:02:45.288Z,16.40
2022-07-26T07:05:12.948Z,20.25
2022-07-26T07:07:42.766Z,12.30
2022-07-26T07:10:10.511Z,20.00
2022-07-26T07:12:41.445Z,14.52
2022-07-26T07:15:08.699Z,15.70
2022-07-26T07:17:35.573Z,15.98
2022-07-26T07:20:04.954Z,20.25
2022-07-26T07:22:32.369Z,13.93
2022-07-26T07:24:59.496Z,15.07
2022-07-26T07:27:27.293Z,15.23
2022-07-26T07:29:58.604Z,16.35
2022-07-26T07:32:25.699Z,23.65
2022-07-26T07:34:53.548Z,17.80
2022-07-26T07:37:20.492Z,17.25
2022-07-26T07:39:51.288Z,16.65
2022-07-26T07:42:19.879Z,10.68
2022-07-26T07:44:47.013Z,10.48
2022-07-26T07:47:15.023Z,17.90
2022-07-26T07:49:44.277Z,17.05
2022-07-26T07:52:11.155Z,16.25
2022-07-26T07:54:37.994Z,13.20
2022-07-26T07:57:05.000Z,15.98
2022-07-26T07:59:31.875Z,13.95
2022-07-26T08:01:59.857Z,16.45
2022-07-26T08:04:26.726Z,14.85
2022-07-26T08:06:55.633Z,15.38
2022-07-26T08:09:22.544Z,13.57
2022-07-26T08:11:52.004Z,12.98
2022-07-26T08:14:20.349Z,16.55
2022-07-26T08:16:47.407Z,10.95
2022-07-26T08:19:15.680Z,13.18
2022-07-26T08:21:45.635Z,16.50
2022-07-26T08:24:13.724Z,21.15
2022-07-26T08:26:40.569Z,14.00
2022-07-26T08:29:07.531Z,12.05
2022-07-26T08:31:34.413Z,14.68
2022-07-26T08:34:01.457Z,11.70
2022-07-26T08:36:32.532Z,17.20
2022-07-26T08:39:00.840Z,16.33
2022-07-26T08:41:29.131Z,11.75
2022-07-26T08:44:05.422Z,14.63
2022-07-26T08:46:36.424Z,14.43
2022-07-26T08:49:04.675Z,14.30
2022-07-26T08:51:32.077Z,12.10
2022-07-26T08:54:07.850Z,13.25
2022-07-26T08:56:37.812Z,14.18
2022-07-26T08:59:20.761Z,10.73
2022-07-26T09:01:51.390Z,14.95
2022-07-26T09:04:30.866Z,14.70
2022-07-26T09:07:10.169Z,15.77
2022-07-26T09:09:39.513Z,14.98
2022-07-26T09:12:18.848Z,14.82
2022-07-26T09:14:47.113Z,12.60
2022-07-26T09:17:15.846Z,14.15
2022-07-26T09:19:44.392Z,13.57
2022-07-26T09:22:15.087Z,9.07
2022-07-26T09:24:47.214Z,12.10
2022-07-26T09:29:53.824Z,8.57
2022-07-26T09:32:26.193Z,11.55
2022-07-26T09:34:59.257Z,10.07
2022-07-26T09:37:37.391Z,10.57
2022-07-26T09:40:09.451Z,9.43
2022-07-26T09:42:36.620Z,8.88
2022-07-26T09:45:19.130Z,10.07
2022-07-26T09:47:46.057Z,7.95
2022-07-26T09:50:25.776Z,9.02
2022-07-26T09:53:10.412Z,8.20
2022-07-26T09:55:45.088Z,12.63
2022-07-26T09:58:14.697Z,14.27
2022-07-26T10:00:42.591Z,9.75
2022-07-26T10:03:09.938Z,6.05
2022-07-26T10:05:37.802Z,8.27
2022-07-26T10:08:05.862Z,10.57
2022-07-26T10:11:06.154Z,7.60
2022-07-26T10:13:33.239Z,4.82
2022-07-26T10:16:01.915Z,7.90
2022-07-26T10:18:39.047Z,6.32
2022-07-26T10:21:26.167Z,7.40
2022-07-26T10:24:01.089Z,6.40
2022-07-26T10:26:34.921Z,9.23
2022-07-26T10:29:18.459Z,10.13
2022-07-26T10:32:03.262Z,7.82
2022-07-26T10:34:35.126Z,6.47
2022-07-26T10:37:08.580Z,6.53
2022-07-26T10:39:36.058Z,7.47
2022-07-26T10:42:10.607Z,7.55
2022-07-26T10:44:41.286Z,8.15
2022-07-26T10:47:09.068Z,6.95
2022-07-26T10:49:58.154Z,4.82
2022-07-26T10:52:30.328Z,8.50
2022-07-26T10:54:57.339Z,10.35
2022-07-26T10:57:24.489Z,8.05
2022-07-26T10:59:56.463Z,9.23
2022-07-26T11:05:14.721Z,7.03
2022-07-26T11:08:09.279Z,7.75
2022-07-26T11:10:40.489Z,7.68
2022-07-26T11:13:08.984Z,11.93
2022-07-26T11:15:40.786Z,10.00
2022-07-26T11:18:10.541Z,7.18
2022-07-26T11:20:37.937Z,5.85
2022-07-26T11:23:19.099Z,9.07
2022-07-26T11:26:19.633Z,4.40
2022-07-26T11:28:55.939Z,9.65
2022-07-26T11:31:51.441Z,4.35
2022-07-26T11:34:26.049Z,6.38
2022-07-26T11:36:56.730Z,5.28
2022-07-26T11:39:29.968Z,6.55
2022-07-26T11:42:02.623Z,6.80
2022-07-26T11:44:30.244Z,7.97
2022-07-26T11:46:58.515Z,3.85
2022-07-26T11:49:59.700Z,11.43
2022-07-26T11:52:25.102Z,6.68
2022-07-26T11:54:53.746Z,10.18
2022-07-26T11:57:20.778Z,5.55
2022-07-26T11:59:50.389Z,5.03
2022-07-26T12:02:18.077Z,3.80
2022-07-26T12:04:46.305Z,7.38
2022-07-26T12:07:20.143Z,8.07
2022-07-26T12:09:48.478Z,5.75
2022-07-26T12:12:33.350Z,2.15
2022-07-26T12:15:06.092Z,3.28
2022-07-26T12:17:35.730Z,3.95
2022-07-26T12:20:17.528Z,5.90
2022-07-26T12:23:05.047Z,9.75
2022-07-26T12:25:32.049Z,6.50
2022-07-26T12:27:59.034Z,5.50
2022-07-26T12:30:30.974Z,4.60
2022-07-26T12:33:02.233Z,7.57
2022-07-26T12:35:33.462Z,5.80
2022-07-26T12:38:03.340Z,5.47
2022-07-26T12:40:39.645Z,5.30
2022-07-26T12:43:07.580Z,3.78
2022-07-26T12:45:35.553Z,3.92
2022-07-26T12:48:10.805Z,5.35
2022-07-26T12:50:40.528Z,4.35
2022-07-26T12:53:08.839Z,4.93
2022-07-26T12:55:37.725Z,5.28
2022-07-26T12:58:04.668Z,4.30
2022-07-26T13:00:31.616Z,5.30
2022-07-26T13:02:58.632Z,5.45
2022-07-26T13:05:25.611Z,3.40
2022-07-26T13:07:52.679Z,3.33
2022-07-26T13:10:33.253Z,4.07
2022-07-26T13:13:00.947Z,2.63
2022-07-26T13:15:37.070Z,6.18
2022-07-26T13:18:09.171Z,8.73
2022-07-26T13:20:39.524Z,5.50
2022-07-26T13:23:12.779Z,7.60
2022-07-26T13:25:43.041Z,3.13
2022-07-26T13:28:10.740Z,3.78
2022-07-26T13:30:39.366Z,4.82
2022-07-26T13:33:06.953Z,9.07
2022-07-26T13:35:33.860Z,7.22
2022-07-26T13:38:00.826Z,5.40
2022-07-26T13:40:31.531Z,7.57
2022-07-26T13:43:00.552Z,3.50
2022-07-26T13:45:29.901Z,6.90
2022-07-26T13:47:58.776Z,2.90
2022-07-26T13:50:27.868Z,4.25
2022-07-26T13:52:56.406Z,4.28
2022-07-26T13:55:23.941Z,3.42
2022-07-26T13:57:56.563Z,5.50
2022-07-26T14:00:29.125Z,3.70
2022-07-26T14:03:00.256Z,5.28
2022-07-26T14:05:28.140Z,7.65
2022-07-26T14:07:55.472Z,2.22
2022-07-26T14:10:23.301Z,2.63
2022-07-26T14:12:53.760Z,2.85
2022-07-26T14:15:23.341Z,5.10
2022-07-26T14:17:52.250Z,4.88
2022-07-26T14:20:21.607Z,4.57
2022-07-26T14:22:53.211Z,2.95
2022-07-26T14:25:21.877Z,6.15
2022-07-26T14:27:52.652Z,6.32
2022-07-26T14:30:20.923Z,4.15
2022-07-26T14:32:50.103Z,5.85
2022-07-26T14:35:18.272Z,4.50
2022-07-26T14:37:47.767Z,4.38
2022-07-26T14:40:17.153Z,3.60
2022-07-26T14:42:45.285Z,4.47
2022-07-26T14:45:13.789Z,3.63
2022-07-26T14:47:41.522Z,5.32
2022-07-26T14:50:09.594Z,7.72
2022-07-26T14:52:55.489Z,10.15
2022-07-26T14:55:25.339Z,6.85
2022-07-26T14:57:54.618Z,5.32
2022-07-26T15:00:21.876Z,3.53
2022-07-26T15:02:49.324Z,6.30
2022-07-26T15:05:17.238Z,8.35
2022-07-26T15:07:44.725Z,5.40
2022-07-26T15:10:15.070Z,4.80
2022-07-26T15:12:43.524Z,9.23
2022-07-26T15:15:11.543Z,6.03
2022-07-26T15:17:38.447Z,3.78
2022-07-26T15:20:06.292Z,6.15
2022-07-26T15:22:33.883Z,6.10
2022-07-26T15:25:00.800Z,5.90
2022-07-26T15:27:27.671Z,9.00
2022-07-26T15:30:01.106Z,5.55
2022-07-26T15:32:31.050Z,7.82
2022-07-26T15:34:58.221Z,3.80
2022-07-26T15:37:25.138Z,11.50
2022-07-26T15:39:52.062Z,9.95
2022-07-26T15:42:21.523Z,8.80
2022-07-26T15:44:51.312Z,6.47
2022-07-26T15:47:43.574Z,4.95
2022-07-26T15:50:08.640Z,6.63
2022-07-26T15:52:42.839Z,7.43
2022-07-26T15:55:11.552Z,6.80
2022-07-26T15:57:39.501Z,7.25
2022-07-26T16:00:10.970Z,7.25
2022-07-26T16:05:07.695Z,9.38
2022-07-26T16:07:34.619Z,7.28
2022-07-26T16:10:01.745Z,6.90
2022-07-26T16:12:29.650Z,11.20
2022-07-26T16:14:58.339Z,6.88
2022-07-26T16:17:25.342Z,9.23
2022-07-26T16:19:53.167Z,9.05
2022-07-26T16:22:20.174Z,7.82
2022-07-26T16:24:48.068Z,7.43
2022-07-26T16:27:14.966Z,5.90
2022-07-26T16:29:42.105Z,5.75
2022-07-26T16:32:10.165Z,11.75
2022-07-26T16:34:37.364Z,8.48
2022-07-26T16:37:05.020Z,9.40
2022-07-26T16:39:31.946Z,6.38
2022-07-26T16:42:02.040Z,9.85
2022-07-26T16:44:33.441Z,10.85
2022-07-26T16:47:00.457Z,6.90
2022-07-26T16:49:28.301Z,9.18
2022-07-26T16:51:56.756Z,8.32
2022-07-26T16:54:24.869Z,7.50
2022-07-26T16:56:51.728Z,13.07
2022-07-26T16:59:18.940Z,6.82
2022-07-26T17:01:46.095Z,12.35
2022-07-26T17:04:14.050Z,9.43
2022-07-26T17:06:42.026Z,6.03
2022-07-26T17:09:21.340Z,12.65
2022-07-26T17:11:48.309Z,5.20
2022-07-26T17:14:18.302Z,8.95
2022-07-26T17:16:45.243Z,6.03
2022-07-26T17:19:12.819Z,7.78
2022-07-26T17:21:39.935Z,11.00
2022-07-26T17:24:07.130Z,8.57
2022-07-26T17:26:37.485Z,8.30
2022-07-26T17:29:06.211Z,10.48
2022-07-26T17:31:33.342Z,10.80
2022-07-26T17:34:00.167Z,10.32
2022-07-26T17:36:30.461Z,15.00
2022-07-26T17:38:57.900Z,8.07
2022-07-26T17:41:33.109Z,8.80
2022-07-26T17:44:02.971Z,9.05
2022-07-26T17:46:32.626Z,6.32
2022-07-26T17:49:00.482Z,8.20
2022-07-26T17:51:27.386Z,6.85
2022-07-26T17:53:54.421Z,9.20
2022-07-26T17:56:21.359Z,11.23
2022-07-26T17:58:48.244Z,13.40
2022-07-26T18:01:16.482Z,12.45
2022-07-26T18:03:45.462Z,9.25
2022-07-26T18:06:12.699Z,10.65
2022-07-26T18:08:39.619Z,11.75
2022-07-26T18:11:08.049Z,10.18
2022-07-26T18:13:35.477Z,8.05
2022-07-26T18:16:06.074Z,15.82
2022-07-26T18:18:33.278Z,10.52
2022-07-26T18:21:00.230Z,12.15
2022-07-26T18:23:27.423Z,7.15
2022-07-26T18:25:54.452Z,9.73
2022-07-26T18:28:22.620Z,14.80
2022-07-26T18:30:49.593Z,12.55
2022-07-26T18:33:17.446Z,13.15
2022-07-26T18:35:45.307Z,9.32
2022-07-26T18:38:14.279Z,9.45
2022-07-26T18:40:41.208Z,7.55
2022-07-26T18:43:09.541Z,9.55
2022-07-26T18:45:36.434Z,11.10
2022-07-26T18:48:04.823Z,10.88
2022-07-26T18:50:32.343Z,10.73
2022-07-26T18:52:59.818Z,8.80
2022-07-26T18:55:29.907Z,8.40
2022-07-26T18:57:56.971Z,11.23
2022-07-26T19:00:25.628Z,10.68
2022-07-26T19:02:54.675Z,11.10
2022-07-26T19:05:22.966Z,10.82
2022-07-26T19:07:51.680Z,12.98
2022-07-26T19:10:20.262Z,8.20
2022-07-26T19:12:48.532Z,6.55
2022-07-26T19:15:16.175Z,10.23
2022-07-26T19:17:43.336Z,7.90
2022-07-26T19:20:11.748Z,8.02
2022-07-26T19:22:47.052Z,9.98
2022-07-26T19:25:16.534Z,10.68
2022-07-26T19:27:44.511Z,9.68
2022-07-26T19:30:12.800Z,9.02
2022-07-26T19:32:43.530Z,11.65
2022-07-26T19:35:11.518Z,6.30
2022-07-26T19:37:38.579Z,10.30
2022-07-26T19:40:06.264Z,7.63
2022-07-26T19:42:34.934Z,13.05
2022-07-26T19:45:03.708Z,9.10
2022-07-26T19:47:31.446Z,9.93
2022-07-26T19:49:59.703Z,5.38
2022-07-26T19:52:28.092Z,9.15
2022-07-26T19:54:56.009Z,9.50
2022-07-26T19:57:24.188Z,6.72
2022-07-26T19:59:51.251Z,8.00
2022-07-26T20:02:19.423Z,9.27
2022-07-26T20:04:46.623Z,10.75
2022-07-26T20:07:19.541Z,11.85
2022-07-26T20:09:51.457Z,13.07
2022-07-26T20:12:20.835Z,9.80
2022-07-26T20:14:48.837Z,9.35
2022-07-26T20:17:16.373Z,12.25
2022-07-26T20:19:43.514Z,10.02
2022-07-26T20:22:11.036Z,6.22
2022-07-26T20:24:39.636Z,11.07
2022-07-26T20:27:07.370Z,6.88
2022-07-26T20:29:36.098Z,9.50
2022-07-26T20:32:03.102Z,6.60
2022-07-26T20:34:30.101Z,8.55
2022-07-26T20:37:00.730Z,7.07
2022-07-26T20:39:28.166Z,9.70
2022-07-26T20:41:55.359Z,6.97
2022-07-26T20:44:28.441Z,7.68
2022-07-26T20:46:56.353Z,8.82
2022-07-26T20:49:23.427Z,9.57
2022-07-26T20:51:50.443Z,6.55
2022-07-26T20:54:17.627Z,7.93
2022-07-26T20:56:44.594Z,5.95
2022-07-26T20:59:12.952Z,9.13
2022-07-26T21:01:40.357Z,8.70
2022-07-26T21:04:12.082Z,8.05
2022-07-26T21:06:39.958Z,7.07
2022-07-26T21:09:08.947Z,9.90
2022-07-26T21:11:37.675Z,5.18
2022-07-26T21:14:04.739Z,9.25
2022-07-26T21:16:33.085Z,7.68
2022-07-26T21:19:02.441Z,8.73
2022-07-26T21:21:29.557Z,8.15
2022-07-26T21:23:56.653Z,10.70
2022-07-26T21:26:23.624Z,7.35
2022-07-26T21:28:52.534Z,4.93
2022-07-26T21:31:19.526Z,7.60
2022-07-26T21:33:49.293Z,9.25
2022-07-26T21:36:18.492Z,8.07
2022-07-26T21:38:45.585Z,13.40
2022-07-26T21:41:13.869Z,8.15
2022-07-26T21:43:40.996Z,8.93
2022-07-26T21:46:12.425Z,7.53
2022-07-26T21:48:41.374Z,7.57
2022-07-26T21:51:08.478Z,6.57
2022-07-26T21:53:35.448Z,6.82
2022-07-26T21:56:03.156Z,7.45
2022-07-26T21:58:34.490Z,7.13
2022-07-26T22:01:06.130Z,8.15
2022-07-26T22:03:36.004Z,5.47
2022-07-26T22:06:05.041Z,9.43
2022-07-26T22:08:32.104Z,5.53
2022-07-26T22:10:59.501Z,7.68
2022-07-26T22:13:27.608Z,5.05
2022-07-26T22:15:56.744Z,5.85
2022-07-26T22:18:23.636Z,6.20
2022-07-26T22:20:50.540Z,5.60
2022-07-26T22:23:18.803Z,6.22
2022-07-26T22:25:47.217Z,4.25
2022-07-26T22:28:18.371Z,6.93
2022-07-26T22:30:47.870Z,5.85
2022-07-26T22:33:15.452Z,8.30
2022-07-26T22:35:43.427Z,5.05
2022-07-26T22:38:11.747Z,4.63
2022-07-26T22:40:40.403Z,12.95
2022-07-26T22:43:10.202Z,8.93
2022-07-26T22:45:37.942Z,7.05
2022-07-26T22:48:06.409Z,7.22
2022-07-26T22:50:33.728Z,7.88
2022-07-26T22:53:01.642Z,6.25
2022-07-26T22:55:29.068Z,6.07
2022-07-26T22:57:56.039Z,9.60
2022-07-26T23:00:23.024Z,6.10
2022-07-26T23:02:50.051Z,8.98
2022-07-26T23:05:20.208Z,4.88
2022-07-26T23:07:50.448Z,5.05
2022-07-26T23:10:17.879Z,8.20
2022-07-26T23:12:45.194Z,5.65
2022-07-26T23:15:13.493Z,9.90
2022-07-26T23:17:40.411Z,5.90
2022-07-26T23:20:11.456Z,8.88
2022-07-26T23:22:41.785Z,6.00
2022-07-26T23:25:09.875Z,7.15
2022-07-26T23:27:36.925Z,7.57
2022-07-26T23:30:04.177Z,10.18
2022-07-26T23:32:31.152Z,9.10
2022-07-26T23:34:59.073Z,4.75
2022-07-26T23:37:26.846Z,8.85
2022-07-26T23:39:53.877Z,4.90
2022-07-26T23:42:20.716Z,6.22
2022-07-26T23:44:47.649Z,7.68
2022-07-26T23:47:14.883Z,5.78
2022-07-26T23:49:41.980Z,5.90
2022-07-26T23:52:08.904Z,7.07
2022-07-26T23:54:36.532Z,6.25
2022-07-26T23:57:03.536Z,7.97
2022-07-26T23:59:30.369Z,4.95
